Time,TemperatureF,DewpointF,PressureIn,WindDirection,WindDirectionDegrees,WindSpeedMPH,WindSpeedGustMPH,Humidity,HourlyPrecipIn,Conditions,Clouds,dailyrainin,SoftwareType,DateUTC
2013-02-11 00:00:00,14.3,1.8,30.25,N/A,-737280,0.0,0.0,57,0.00,,,0.00,Wunderground v.1.12,2013-02-11 05:00:00,
2013-02-11 00:02:00,14.3,1.8,30.25,N/A,-737280,0.0,0.0,57,0.00,,,0.00,Wunderground v.1.12,2013-02-11 05:02:00,
2013-02-11 00:04:00,14.3,1.8,30.25,N/A,-737280,0.0,0.0,57,0.00,,,0.00,Wunderground v.1.12,2013-02-11 05:04:00,
2013-02-11 00:06:00,14.3,1.8,30.25,N/A,-737280,0.0,0.0,57,0.00,,,0.00,Wunderground v.1.12,2013-02-11 05:06:00,
2013-02-11 00:08:00,14.3,1.8,30.25,N/A,-737280,0.0,0.0,57,0.00,,,0.00,Wunderground v.1.12,2013-02-11 05:08:00,
2013-02-11 00:10:00,14.3,1.8,30.25,N/A,-737280,0.0,0.0,57,0.00,,,0.00,Wunderground v.1.12,2013-02-11 05:10:00,
2013-02-11 00:12:00,14.3,1.8,30.25,N/A,-737280,0.0,0.0,57,0.00,,,0.00,Wunderground v.1.12,2013-02-11 05:12:00,
2013-02-11 00:13:00,14.6,1.3,30.25,West,261,0.0,1.0,55,0.00,,,0.00,Wunderground v.1.12,2013-02-11 05:13:00,
2013-02-11 00:14:00,14.6,1.3,30.25,West,261,0.0,1.0,55,0.00,,,0.00,Wunderground v.1.12,2013-02-11 05:14:00,
2013-02-11 00:16:00,14.4,0.8,30.25,West,261,0.0,1.0,54,0.00,,,0.00,Wunderground v.1.12,2013-02-11 05:16:00,
2013-02-11 00:17:00,14.4,0.8,30.25,West,261,0.0,1.0,54,0.00,,,0.00,Wunderground v.1.12,2013-02-11 05:17:00,
2013-02-11 00:18:00,14.3,1.8,30.25,N/A,-737280,0.0,0.0,57,0.00,,,0.00,Wunderground v.1.12,2013-02-11 05:18:00,
2013-02-11 00:20:00,14.3,1.8,30.25,N/A,-737280,0.0,0.0,57,0.00,,,0.00,Wunderground v.1.12,2013-02-11 05:20:00,
2013-02-11 00:22:00,14.3,1.8,30.25,N/A,-737280,0.0,0.0,57,0.00,,,0.00,Wunderground v.1.12,2013-02-11 05:22:00,
2013-02-11 00:24:00,14.3,1.8,30.25,N/A,-737280,0.0,0.0,57,0.00,,,0.00,Wunderground v.1.12,2013-02-11 05:24:00,
2013-02-11 00:26:00,14.3,1.8,30.25,N/A,-737280,0.0,0.0,57,0.00,,,0.00,Wunderground v.1.12,2013-02-11 05:26:00,
2013-02-11 00:28:00,14.3,1.8,30.25,N/A,-737280,0.0,0.0,57,0.00,,,0.00,Wunderground v.1.12,2013-02-11 05:28:00,
2013-02-11 00:30:00,14.3,1.8,30.25,N/A,-737280,0.0,0.0,57,0.00,,,0.00,Wunderground v.1.12,2013-02-11 05:30:00,
2013-02-11 00:32:00,14.3,1.8,30.25,N/A,-737280,0.0,0.0,57,0.00,,,0.00,Wunderground v.1.12,2013-02-11 05:32:00,
2013-02-11 00:34:00,14.3,1.8,30.25,N/A,-737280,0.0,0.0,57,0.00,,,0.00,Wunderground v.1.12,2013-02-11 05:34:00,
2013-02-11 00:36:00,14.3,1.8,30.25,N/A,-737280,0.0,0.0,57,0.00,,,0.00,Wunderground v.1.12,2013-02-11 05:36:00,
2013-02-11 00:38:00,14.3,1.8,30.25,N/A,-737280,0.0,0.0,57,0.00,,,0.00,Wunderground v.1.12,2013-02-11 05:38:00,
2013-02-11 00:42:00,14.3,1.8,30.25,N/A,-737280,0.0,0.0,57,0.00,,,0.00,Wunderground v.1.12,2013-02-11 05:42:00,
2013-02-11 00:44:00,14.3,1.8,30.25,N/A,-737280,0.0,0.0,57,0.00,,,0.00,Wunderground v.1.12,2013-02-11 05:44:00,
2013-02-11 00:46:00,14.0,1.5,30.24,N/A,-737280,0.0,0.0,57,0.00,,,0.00,Wunderground v.1.12,2013-02-11 05:46:00,
2013-02-11 00:48:00,14.0,1.5,30.24,N/A,-737280,0.0,0.0,57,0.00,,,0.00,Wunderground v.1.12,2013-02-11 05:48:00,
2013-02-11 00:50:00,14.0,1.5,30.24,N/A,-737280,0.0,0.0,57,0.00,,,0.00,Wunderground v.1.12,2013-02-11 05:50:00,
2013-02-11 00:52:00,14.0,1.5,30.24,N/A,-737280,0.0,0.0,57,0.00,,,0.00,Wunderground v.1.12,2013-02-11 05:52:00,
2013-02-11 00:54:00,14.0,1.5,30.24,N/A,-737280,0.0,0.0,57,0.00,,,0.00,Wunderground v.1.12,2013-02-11 05:54:00,
2013-02-11 00:56:00,14.0,1.5,30.24,N/A,-737280,0.0,0.0,57,0.00,,,0.00,Wunderground v.1.12,2013-02-11 05:56:00,
2013-02-11 00:58:00,14.0,1.5,30.24,N/A,-737280,0.0,0.0,57,0.00,,,0.00,Wunderground v.1.12,2013-02-11 05:58:00,
2013-02-11 01:00:00,14.0,1.5,30.24,N/A,-737280,0.0,0.0,57,0.00,,,0.00,Wunderground v.1.12,2013-02-11 06:00:00,
2013-02-11 01:02:00,14.0,1.5,30.24,N/A,-737280,0.0,0.0,57,0.00,,,0.00,Wunderground v.1.12,2013-02-11 06:02:00,
2013-02-11 01:04:00,14.0,1.5,30.24,N/A,-737280,0.0,0.0,57,0.00,,,0.00,Wunderground v.1.12,2013-02-11 06:04:00,
2013-02-11 01:08:00,13.3,1.3,30.23,West,261,0.0,0.0,58,0.00,,,0.00,Wunderground v.1.12,2013-02-11 06:08:00,
2013-02-11 01:13:00,13.1,1.4,30.23,West,261,0.0,0.0,59,0.00,,,0.00,Wunderground v.1.12,2013-02-11 06:13:00,
2013-02-11 01:19:00,13.1,1.8,30.23,West,261,0.0,0.0,60,0.00,,,0.00,Wunderground v.1.12,2013-02-11 06:19:00,
2013-02-11 01:25:00,13.1,1.8,30.23,West,261,0.0,0.0,60,0.00,,,0.00,Wunderground v.1.12,2013-02-11 06:25:00,
2013-02-11 01:30:00,13.3,2.0,30.22,West,261,0.0,0.0,60,0.00,,,0.00,Wunderground v.1.12,2013-02-11 06:30:00,
2013-02-11 01:36:00,13.3,2.7,30.22,West,261,0.0,0.0,62,0.00,,,0.00,Wunderground v.1.12,2013-02-11 06:36:00,
2013-02-11 01:42:00,13.3,2.7,30.22,West,261,0.0,0.0,62,0.00,,,0.00,Wunderground v.1.12,2013-02-11 06:42:00,
2013-02-11 01:47:00,13.1,2.9,30.22,West,261,0.0,0.0,63,0.00,,,0.00,Wunderground v.1.12,2013-02-11 06:47:00,
2013-02-11 01:52:00,13.1,2.9,30.22,West,261,0.0,0.0,63,0.00,,,0.00,Wunderground v.1.12,2013-02-11 06:52:00,
2013-02-11 01:58:00,12.9,2.0,30.22,West,261,0.0,0.0,61,0.00,,,0.00,Wunderground v.1.12,2013-02-11 06:58:00,
2013-02-11 02:04:00,12.8,2.2,30.21,West,261,0.0,0.0,62,0.00,,,0.00,Wunderground v.1.12,2013-02-11 07:04:00,
2013-02-11 02:08:00,12.9,2.3,30.21,N/A,-737280,0.0,0.0,62,0.00,,,0.00,Wunderground v.1.12,2013-02-11 07:08:00,
2013-02-11 02:10:00,12.9,2.3,30.21,West,261,0.0,0.0,62,0.00,,,0.00,Wunderground v.1.12,2013-02-11 07:10:00,
2013-02-11 02:16:00,12.9,2.7,30.20,West,261,0.0,0.0,63,0.00,,,0.00,Wunderground v.1.12,2013-02-11 07:16:00,
2013-02-11 02:21:00,12.9,3.0,30.20,West,261,0.0,0.0,64,0.00,,,0.00,Wunderground v.1.12,2013-02-11 07:21:00,
2013-02-11 02:26:00,12.8,2.9,30.20,West,261,0.0,0.0,64,0.00,,,0.00,Wunderground v.1.12,2013-02-11 07:26:00,
2013-02-11 02:32:00,12.4,2.5,30.20,West,261,0.0,0.0,64,0.00,,,0.00,Wunderground v.1.12,2013-02-11 07:32:00,
2013-02-11 02:35:00,12.4,2.5,30.20,N/A,-737280,0.0,0.0,64,0.00,,,0.00,Wunderground v.1.12,2013-02-11 07:35:00,
2013-02-11 02:39:00,12.4,2.5,30.20,West,261,0.0,0.0,64,0.00,,,0.00,Wunderground v.1.12,2013-02-11 07:39:00,
2013-02-11 02:44:00,12.6,3.1,30.19,West,261,0.0,0.0,65,0.00,,,0.00,Wunderground v.1.12,2013-02-11 07:44:00,
2013-02-11 02:49:00,12.6,3.1,30.19,West,261,0.0,0.0,65,0.00,,,0.00,Wunderground v.1.12,2013-02-11 07:49:00,
2013-02-11 02:55:00,12.4,2.5,30.19,West,261,0.0,0.0,64,0.00,,,0.00,Wunderground v.1.12,2013-02-11 07:55:00,
2013-02-11 03:00:00,12.4,2.5,30.19,West,261,0.0,0.0,64,0.00,,,0.00,Wunderground v.1.12,2013-02-11 08:00:00,
2013-02-11 03:06:00,12.3,2.8,30.19,West,261,0.0,0.0,65,0.00,,,0.00,Wunderground v.1.12,2013-02-11 08:06:00,
2013-02-11 03:07:00,12.4,2.5,30.19,N/A,-737280,0.0,0.0,64,0.00,,,0.00,Wunderground v.1.12,2013-02-11 08:07:00,
2013-02-11 03:11:00,12.4,2.9,30.19,West,261,0.0,0.0,65,0.00,,,0.00,Wunderground v.1.12,2013-02-11 08:11:00,
2013-02-11 03:16:00,12.6,3.1,30.18,West,261,0.0,0.0,65,0.00,,,0.00,Wunderground v.1.12,2013-02-11 08:16:00,
2013-02-11 03:21:00,12.8,3.2,30.18,West,261,0.0,0.0,65,0.00,,,0.00,Wunderground v.1.12,2013-02-11 08:21:00,
2013-02-11 03:26:00,12.8,3.2,30.18,West,261,0.0,0.0,65,0.00,,,0.00,Wunderground v.1.12,2013-02-11 08:26:00,
2013-02-11 03:32:00,12.6,2.7,30.19,West,261,0.0,0.0,64,0.00,,,0.00,Wunderground v.1.12,2013-02-11 08:32:00,
2013-02-11 03:36:00,12.6,3.1,30.19,West,270,0.0,1.0,65,0.00,,,0.00,Wunderground v.1.12,2013-02-11 08:36:00,
2013-02-11 03:37:00,12.8,2.9,30.19,West,261,0.0,0.0,64,0.00,,,0.00,Wunderground v.1.12,2013-02-11 08:37:00,
2013-02-11 03:42:00,12.8,2.9,30.19,West,261,0.0,0.0,64,0.00,,,0.00,Wunderground v.1.12,2013-02-11 08:42:00,
2013-02-11 03:47:00,12.6,2.7,30.19,West,261,0.0,0.0,64,0.00,,,0.00,Wunderground v.1.12,2013-02-11 08:47:00,
2013-02-11 03:53:00,12.6,2.4,30.19,West,261,0.0,0.0,63,0.00,,,0.00,Wunderground v.1.12,2013-02-11 08:53:00,
2013-02-11 03:59:00,12.8,2.2,30.17,West,261,0.0,0.0,62,0.00,,,0.00,Wunderground v.1.12,2013-02-11 08:59:00,
2013-02-11 04:04:00,13.1,2.9,30.17,West,261,0.0,0.0,63,0.00,,,0.00,Wunderground v.1.12,2013-02-11 09:04:00,
2013-02-11 04:08:00,12.9,2.3,30.17,N/A,-737280,0.0,0.0,62,0.00,,,0.00,Wunderground v.1.12,2013-02-11 09:08:00,
2013-02-11 04:09:00,13.3,4.1,30.17,West,261,0.0,0.0,66,0.00,,,0.00,Wunderground v.1.12,2013-02-11 09:09:00,
2013-02-11 04:14:00,13.5,3.6,30.17,West,261,0.0,0.0,64,0.00,,,0.00,Wunderground v.1.12,2013-02-11 09:14:00,
2013-02-11 04:20:00,13.3,2.7,30.17,West,261,0.0,0.0,62,0.00,,,0.00,Wunderground v.1.12,2013-02-11 09:20:00,
2013-02-11 04:25:00,13.3,3.0,30.17,West,261,0.0,0.0,63,0.00,,,0.00,Wunderground v.1.12,2013-02-11 09:25:00,
2013-02-11 04:30:00,13.5,2.9,30.17,West,261,0.0,0.0,62,0.00,,,0.00,Wunderground v.1.12,2013-02-11 09:30:00,
2013-02-11 04:35:00,13.6,2.6,30.17,West,261,0.0,0.0,61,0.00,,,0.00,Wunderground v.1.12,2013-02-11 09:35:00,
2013-02-11 04:38:00,13.5,3.2,30.17,N/A,-737280,0.0,0.0,63,0.00,,,0.00,Wunderground v.1.12,2013-02-11 09:38:00,
2013-02-11 04:41:00,14.0,4.1,30.17,West,261,0.0,0.0,64,0.00,,,0.00,Wunderground v.1.12,2013-02-11 09:41:00,
2013-02-11 04:47:00,14.3,5.0,30.16,West,261,0.0,0.0,66,0.00,,,0.00,Wunderground v.1.12,2013-02-11 09:47:00,
2013-02-11 04:58:00,14.4,4.1,30.16,West,261,0.0,0.0,63,0.00,,,0.00,Wunderground v.1.12,2013-02-11 09:58:00,
2013-02-11 05:03:00,14.4,4.4,30.15,West,261,0.0,0.0,64,0.00,,,0.00,Wunderground v.1.12,2013-02-11 10:03:00,
2013-02-11 05:06:00,14.4,4.1,30.15,N/A,-737280,0.0,0.0,63,0.00,,,0.00,Wunderground v.1.12,2013-02-11 10:06:00,
2013-02-11 05:09:00,14.6,5.0,30.15,West,261,0.0,0.0,65,0.00,,,0.00,Wunderground v.1.12,2013-02-11 10:09:00,
2013-02-11 05:16:00,14.8,5.2,30.14,West,261,0.0,0.0,65,0.00,,,0.00,Wunderground v.1.12,2013-02-11 10:16:00,
2013-02-11 05:23:00,15.1,5.8,30.14,West,261,0.0,0.0,66,0.00,,,0.00,Wunderground v.1.12,2013-02-11 10:23:00,
2013-02-11 05:28:00,15.2,5.9,30.14,West,261,0.0,0.0,66,0.00,,,0.00,Wunderground v.1.12,2013-02-11 10:28:00,
2013-02-11 05:33:00,15.4,6.1,30.14,West,261,0.0,0.0,66,0.00,,,0.00,Wunderground v.1.12,2013-02-11 10:33:00,
2013-02-11 05:36:00,15.2,5.9,30.14,N/A,-737280,0.0,0.0,66,0.00,,,0.00,Wunderground v.1.12,2013-02-11 10:36:00,
2013-02-11 05:39:00,15.6,6.3,30.14,West,261,0.0,0.0,66,0.00,,,0.00,Wunderground v.1.12,2013-02-11 10:39:00,
2013-02-11 05:44:00,15.7,6.7,30.14,West,261,0.0,0.0,67,0.00,,,0.00,Wunderground v.1.12,2013-02-11 10:44:00,
2013-02-11 05:49:00,15.9,6.9,30.14,West,261,0.0,0.0,67,0.00,,,0.00,Wunderground v.1.12,2013-02-11 10:49:00,
2013-02-11 05:54:00,16.1,6.7,30.14,West,261,0.0,0.0,66,0.00,,,0.00,Wunderground v.1.12,2013-02-11 10:54:00,
2013-02-11 05:59:00,15.9,5.2,30.13,West,261,0.0,0.0,62,0.00,,,0.00,Wunderground v.1.12,2013-02-11 10:59:00,
2013-02-11 06:05:00,15.9,5.2,30.13,West,261,0.0,0.0,62,0.00,,,0.00,Wunderground v.1.12,2013-02-11 11:05:00,
2013-02-11 06:08:00,15.9,5.2,30.13,N/A,-737280,0.0,0.0,62,0.00,,,0.00,Wunderground v.1.12,2013-02-11 11:08:00,
2013-02-11 06:11:00,15.7,5.0,30.13,West,261,0.0,0.0,62,0.00,,,0.00,Wunderground v.1.12,2013-02-11 11:11:00,
2013-02-11 06:17:00,15.9,5.2,30.14,West,261,0.0,0.0,62,0.00,,,0.00,Wunderground v.1.12,2013-02-11 11:17:00,
2013-02-11 06:22:00,15.9,4.8,30.14,West,261,0.0,0.0,61,0.00,,,0.00,Wunderground v.1.12,2013-02-11 11:22:00,
2013-02-11 06:28:00,16.1,5.7,30.14,West,261,0.0,0.0,63,0.00,,,0.00,Wunderground v.1.12,2013-02-11 11:28:00,
2013-02-11 06:33:00,16.2,6.5,30.14,West,261,0.0,0.0,65,0.00,,,0.00,Wunderground v.1.12,2013-02-11 11:33:00,
2013-02-11 06:35:00,16.1,6.1,30.14,West,270,0.0,2.0,64,0.00,,,0.00,Wunderground v.1.12,2013-02-11 11:35:00,
2013-02-11 06:39:00,16.7,7.0,30.14,West,261,0.0,0.0,65,0.00,,,0.00,Wunderground v.1.12,2013-02-11 11:39:00,
2013-02-11 06:45:00,17.0,7.6,30.13,West,261,0.0,0.0,66,0.00,,,0.00,Wunderground v.1.12,2013-02-11 11:45:00,
2013-02-11 06:50:00,17.2,7.1,30.13,West,261,0.0,0.0,64,0.00,,,0.00,Wunderground v.1.12,2013-02-11 11:50:00,
2013-02-11 06:56:00,17.3,7.2,30.13,West,261,0.0,0.0,64,0.00,,,0.00,Wunderground v.1.12,2013-02-11 11:56:00,
2013-02-11 07:02:00,17.8,8.4,30.12,West,261,0.0,0.0,66,0.00,,,0.00,Wunderground v.1.12,2013-02-11 12:02:00,
2013-02-11 07:06:00,17.7,7.9,30.12,N/A,-737280,0.0,0.0,65,0.00,,,0.00,Wunderground v.1.12,2013-02-11 12:06:00,
2013-02-11 07:09:00,18.0,8.2,30.12,West,261,0.0,0.0,65,0.00,,,0.00,Wunderground v.1.12,2013-02-11 12:09:00,
2013-02-11 07:14:00,18.3,8.1,30.11,West,261,0.0,0.0,64,0.00,,,0.00,Wunderground v.1.12,2013-02-11 12:14:00,
2013-02-11 08:18:00,23.0,12.6,30.09,West,261,0.0,1.0,64,0.00,,,0.00,Wunderground v.1.12,2013-02-11 13:18:00,
2013-02-11 08:24:00,23.5,13.1,30.09,West,261,0.0,0.0,64,0.00,,,0.00,Wunderground v.1.12,2013-02-11 13:24:00,
2013-02-11 08:29:00,23.8,13.4,30.08,West,261,0.0,0.0,64,0.00,,,0.00,Wunderground v.1.12,2013-02-11 13:29:00,
2013-02-11 08:35:00,24.2,14.1,30.08,West,261,0.0,0.0,65,0.00,,,0.00,Wunderground v.1.12,2013-02-11 13:35:00,
2013-02-11 08:38:00,23.8,13.4,30.08,West,270,0.0,3.0,64,0.00,,,0.00,Wunderground v.1.12,2013-02-11 13:38:00,
2013-02-11 08:41:00,25.0,14.9,30.08,West,261,0.0,0.0,65,0.00,,,0.00,Wunderground v.1.12,2013-02-11 13:41:00,
2013-02-11 08:46:00,25.4,14.9,30.07,West,261,0.0,0.0,64,0.00,,,0.00,Wunderground v.1.12,2013-02-11 13:46:00,
2013-02-11 08:51:00,25.7,15.2,30.07,West,261,0.0,0.0,64,0.00,,,0.00,Wunderground v.1.12,2013-02-11 13:51:00,
2013-02-11 08:56:00,26.0,15.5,30.07,West,261,0.0,0.0,64,0.00,,,0.00,Wunderground v.1.12,2013-02-11 13:56:00,
2013-02-11 09:02:00,26.3,16.1,30.06,West,261,0.0,0.0,65,0.00,,,0.00,Wunderground v.1.12,2013-02-11 14:02:00,
2013-02-11 09:07:00,26.3,15.4,30.06,West,261,0.0,0.0,63,0.00,,,0.00,Wunderground v.1.12,2013-02-11 14:07:00,
2013-02-11 09:13:00,26.1,15.6,30.06,West,261,0.0,0.0,64,0.00,,,0.00,Wunderground v.1.12,2013-02-11 14:13:00,
2013-02-11 09:18:00,26.1,15.2,30.05,West,261,0.0,0.0,63,0.00,,,0.00,Wunderground v.1.12,2013-02-11 14:18:00,
2013-02-11 09:24:00,26.1,15.6,30.05,West,261,0.0,0.0,64,0.00,,,0.00,Wunderground v.1.12,2013-02-11 14:24:00,
2013-02-11 09:30:00,26.1,15.9,30.04,West,261,0.0,0.0,65,0.00,,,0.00,Wunderground v.1.12,2013-02-11 14:30:00,
2013-02-11 09:35:00,26.1,17.0,30.04,West,261,0.0,0.0,68,0.00,,,0.00,Wunderground v.1.12,2013-02-11 14:35:00,
2013-02-11 09:38:00,26.1,15.9,30.04,West,270,0.0,1.0,65,0.00,,,0.00,Wunderground v.1.12,2013-02-11 14:38:00,
2013-02-11 09:41:00,26.1,17.6,30.04,West,261,0.0,0.0,70,0.00,,,0.00,Wunderground v.1.12,2013-02-11 14:41:00,
2013-02-11 09:46:00,26.0,18.2,30.02,West,261,0.0,0.0,72,0.00,,,0.00,Wunderground v.1.12,2013-02-11 14:46:00,
2013-02-11 09:52:00,26.1,18.9,30.02,West,261,0.0,0.0,74,0.00,,,0.00,Wunderground v.1.12,2013-02-11 14:52:00,
2013-02-11 09:57:00,26.1,19.3,30.02,West,261,0.0,0.0,75,0.00,,,0.00,Wunderground v.1.12,2013-02-11 14:57:00,
2013-02-11 10:02:00,26.3,20.1,30.00,West,261,0.0,0.0,77,0.00,,,0.00,Wunderground v.1.12,2013-02-11 15:02:00,
2013-02-11 10:06:00,26.1,19.6,30.00,West,270,0.0,1.0,76,0.00,,,0.00,Wunderground v.1.12,2013-02-11 15:06:00,
2013-02-11 10:08:00,26.6,21.3,30.00,West,261,0.0,0.0,80,0.00,,,0.00,Wunderground v.1.12,2013-02-11 15:08:00,
2013-02-11 10:13:00,26.4,21.4,30.00,West,261,0.0,0.0,81,0.00,,,0.00,Wunderground v.1.12,2013-02-11 15:13:00,
2013-02-11 10:18:00,26.3,21.6,30.00,West,261,0.0,0.0,82,0.00,,,0.00,Wunderground v.1.12,2013-02-11 15:18:00,
2013-02-11 10:23:00,26.3,21.8,30.00,West,261,0.0,0.0,83,0.00,,,0.00,Wunderground v.1.12,2013-02-11 15:23:00,
2013-02-11 10:29:00,26.6,22.4,29.98,West,261,0.0,0.0,84,0.00,,,0.00,Wunderground v.1.12,2013-02-11 15:29:00,
2013-02-11 10:35:00,26.7,22.8,29.98,West,261,0.0,0.0,85,0.00,,,0.00,Wunderground v.1.12,2013-02-11 15:35:00,
2013-02-11 10:40:00,26.9,23.0,29.98,West,261,0.0,0.0,85,0.00,,,0.00,Wunderground v.1.12,2013-02-11 15:40:00,
2013-02-11 10:47:00,26.7,23.1,29.97,West,261,0.0,0.0,86,0.00,,,0.00,Wunderground v.1.12,2013-02-11 15:47:00,
2013-02-11 10:53:00,26.6,23.0,29.97,West,261,0.0,0.0,86,0.00,,,0.00,Wunderground v.1.12,2013-02-11 15:53:00,
2013-02-11 10:59:00,26.6,23.3,29.97,West,261,0.0,0.0,87,0.00,,,0.00,Wunderground v.1.12,2013-02-11 15:59:00,
2013-02-11 11:05:00,26.7,23.4,29.97,West,261,0.0,0.0,87,0.00,,,0.00,Wunderground v.1.12,2013-02-11 16:05:00,
2013-02-11 11:10:00,26.7,23.6,29.97,West,261,0.0,0.0,88,0.00,,,0.00,Wunderground v.1.12,2013-02-11 16:10:00,
2013-02-11 11:16:00,26.9,23.8,29.94,West,261,0.0,0.0,88,0.00,,,0.00,Wunderground v.1.12,2013-02-11 16:16:00,
2013-02-11 11:21:00,26.9,23.8,29.94,West,261,0.0,0.0,88,0.00,,,0.00,Wunderground v.1.12,2013-02-11 16:21:00,
2013-02-11 11:27:00,27.0,24.2,29.94,West,261,0.0,0.0,89,0.00,,,0.00,Wunderground v.1.12,2013-02-11 16:27:00,
2013-02-11 11:34:00,27.6,24.8,29.93,West,261,0.0,0.0,89,0.00,,,0.00,Wunderground v.1.12,2013-02-11 16:34:00,
2013-02-11 11:37:00,27.3,24.5,29.93,West,270,0.0,1.0,89,0.00,,,0.00,Wunderground v.1.12,2013-02-11 16:37:00,
2013-02-11 11:40:00,28.2,25.6,29.93,West,261,0.0,0.0,90,0.00,,,0.00,Wunderground v.1.12,2013-02-11 16:40:00,
2013-02-11 11:45:00,29.0,26.4,29.90,West,261,0.0,0.0,90,0.00,,,0.00,Wunderground v.1.12,2013-02-11 16:45:00,
2013-02-11 11:51:00,29.4,27.1,29.90,West,261,0.0,0.0,91,0.00,,,0.00,Wunderground v.1.12,2013-02-11 16:51:00,
2013-02-11 11:57:00,29.8,27.5,29.90,West,261,0.0,0.0,91,0.00,,,0.00,Wunderground v.1.12,2013-02-11 16:57:00,
2013-02-11 12:02:00,31.5,29.7,29.88,West,261,0.0,1.0,93,0.00,,,0.00,Wunderground v.1.12,2013-02-11 17:02:00,
2013-02-11 12:07:00,32.7,30.9,29.88,West,261,0.0,0.0,93,0.00,,,0.00,Wunderground v.1.12,2013-02-11 17:07:00,
2013-02-11 12:12:00,34.0,32.5,29.88,West,259,1.0,2.0,94,0.00,,,0.00,Wunderground v.1.12,2013-02-11 17:12:00,
2013-02-11 12:17:00,34.9,33.3,29.86,SSE,149,1.0,4.0,94,0.00,,,0.00,Wunderground v.1.12,2013-02-11 17:17:00,
2013-02-11 12:22:00,35.5,33.9,29.86,East,94,1.0,7.0,94,0.00,,,0.00,Wunderground v.1.12,2013-02-11 17:22:00,
2013-02-11 12:28:00,35.8,34.2,29.86,SSE,158,1.0,1.0,94,0.00,,,0.00,Wunderground v.1.12,2013-02-11 17:28:00,
2013-02-11 12:34:00,36.0,34.4,29.83,SE,140,1.0,2.0,94,0.00,,,0.00,Wunderground v.1.12,2013-02-11 17:34:00,
2013-02-11 12:38:00,35.9,34.3,29.83,West,270,1.0,7.0,94,0.00,,,0.00,Wunderground v.1.12,2013-02-11 17:38:00,
2013-02-11 12:39:00,36.6,35.3,29.83,East,98,2.0,3.0,95,0.00,,,0.00,Wunderground v.1.12,2013-02-11 17:39:00,
2013-02-11 12:44:00,36.8,35.5,29.82,East,84,2.0,3.0,95,0.00,,,0.00,Wunderground v.1.12,2013-02-11 17:44:00,
2013-02-11 12:49:00,37.0,35.7,29.82,ESE,105,2.0,4.0,95,0.00,,,0.00,Wunderground v.1.12,2013-02-11 17:49:00,
2013-02-11 12:55:00,37.2,35.9,29.82,South,173,3.0,3.0,95,0.00,,,0.00,Wunderground v.1.12,2013-02-11 17:55:00,
2013-02-11 13:00:00,37.3,36.0,29.79,ESE,111,3.0,3.0,95,0.00,,,0.00,Wunderground v.1.12,2013-02-11 18:00:00,
2013-02-11 13:05:00,37.3,36.0,29.79,ESE,112,3.0,4.0,95,0.00,,,0.00,Wunderground v.1.12,2013-02-11 18:05:00,
2013-02-11 13:06:00,37.3,36.0,29.79,East,90,2.0,9.0,95,0.00,,,0.00,Wunderground v.1.12,2013-02-11 18:06:00,
2013-02-11 13:10:00,37.5,36.2,29.79,South,169,2.0,3.0,95,0.00,,,0.00,Wunderground v.1.12,2013-02-11 18:10:00,
2013-02-11 13:15:00,37.5,36.2,29.77,SE,130,1.0,1.0,95,0.00,,,0.00,Wunderground v.1.12,2013-02-11 18:15:00,
2013-02-11 13:21:00,37.5,36.2,29.77,South,184,2.0,6.0,95,0.00,,,0.00,Wunderground v.1.12,2013-02-11 18:21:00,
2013-02-11 13:27:00,37.6,36.3,29.77,ESE,118,2.0,2.0,95,0.00,,,0.00,Wunderground v.1.12,2013-02-11 18:27:00,
2013-02-11 13:32:00,37.8,36.8,29.75,SSE,159,2.0,5.0,96,0.00,,,0.00,Wunderground v.1.12,2013-02-11 18:32:00,
2013-02-11 13:36:00,37.8,36.8,29.75,SSE,158,2.0,11.0,96,0.00,,,0.01,Wunderground v.1.12,2013-02-11 18:36:00,
2013-02-11 13:39:00,37.8,36.8,29.75,SSW,210,3.0,3.0,96,0.00,,,0.00,Wunderground v.1.12,2013-02-11 18:39:00,
2013-02-11 13:44:00,37.8,36.5,29.74,SE,146,2.0,3.0,95,0.00,,,0.00,Wunderground v.1.12,2013-02-11 18:44:00,
2013-02-11 13:50:00,37.8,36.8,29.74,South,173,2.0,2.0,96,0.00,,,0.00,Wunderground v.1.12,2013-02-11 18:50:00,
2013-02-11 13:55:00,37.8,36.8,29.74,SSE,168,2.0,2.0,96,0.00,,,0.00,Wunderground v.1.12,2013-02-11 18:55:00,
2013-02-11 14:00:00,37.8,36.8,29.72,South,173,1.0,3.0,96,0.00,,,0.01,Wunderground v.1.12,2013-02-11 19:00:00,
2013-02-11 14:06:00,37.9,36.9,29.72,SSE,154,1.0,1.0,96,0.44,,,0.07,Wunderground v.1.12,2013-02-11 19:06:00,
2013-02-11 14:11:00,37.9,36.9,29.72,South,186,2.0,5.0,96,0.15,,,0.07,Wunderground v.1.12,2013-02-11 19:11:00,
2013-02-11 14:17:00,38.0,37.0,29.71,South,178,2.0,2.0,96,0.15,,,0.09,Wunderground v.1.12,2013-02-11 19:17:00,
2013-02-11 14:23:00,38.2,37.2,29.71,South,169,1.0,5.0,96,0.13,,,0.10,Wunderground v.1.12,2013-02-11 19:23:00,
2013-02-11 14:29:00,38.2,37.2,29.71,South,182,1.0,4.0,96,0.13,,,0.11,Wunderground v.1.12,2013-02-11 19:29:00,
2013-02-11 14:34:00,38.3,37.3,29.70,SW,236,1.0,1.0,96,0.11,,,0.12,Wunderground v.1.12,2013-02-11 19:34:00,
2013-02-11 14:36:00,38.2,37.2,29.69,South,180,1.0,11.0,96,0.11,,,0.16,Wunderground v.1.12,2013-02-11 19:36:00,
2013-02-11 14:39:00,38.2,37.2,29.70,SSE,165,1.0,1.0,96,0.11,,,0.13,Wunderground v.1.12,2013-02-11 19:39:00,
2013-02-11 14:44:00,38.2,37.2,29.70,South,171,1.0,1.0,96,0.08,,,0.14,Wunderground v.1.12,2013-02-11 19:44:00,
2013-02-11 14:49:00,38.0,37.0,29.69,South,171,0.0,1.0,96,0.08,,,0.14,Wunderground v.1.12,2013-02-11 19:49:00,
2013-02-11 14:54:00,38.2,37.2,29.69,South,173,0.0,2.0,96,0.08,,,0.15,Wunderground v.1.12,2013-02-11 19:54:00,
2013-02-11 14:59:00,38.3,37.3,29.69,South,173,1.0,3.0,96,0.08,,,0.16,Wunderground v.1.12,2013-02-11 19:59:00,
2013-02-11 15:04:00,38.5,37.5,29.69,South,173,1.0,3.0,96,0.08,,,0.16,Wunderground v.1.12,2013-02-11 20:04:00,
2013-02-11 15:06:00,38.5,37.5,29.69,South,180,1.0,6.0,96,0.15,,,0.19,Wunderground v.1.12,2013-02-11 20:06:00,
2013-02-11 15:10:00,38.5,37.5,29.69,South,173,1.0,3.0,96,0.07,,,0.17,Wunderground v.1.12,2013-02-11 20:10:00,
2013-02-11 15:15:00,38.6,37.6,29.69,South,173,0.0,0.0,96,0.07,,,0.17,Wunderground v.1.12,2013-02-11 20:15:00,
2013-02-11 15:20:00,38.6,37.6,29.69,South,173,0.0,0.0,96,0.06,,,0.18,Wunderground v.1.12,2013-02-11 20:20:00,
2013-02-11 15:25:00,38.5,37.5,29.69,South,173,0.0,1.0,96,0.06,,,0.18,Wunderground v.1.12,2013-02-11 20:25:00,
2013-02-11 15:31:00,38.3,37.3,29.67,South,173,0.0,0.0,96,0.06,,,0.19,Wunderground v.1.12,2013-02-11 20:31:00,
2013-02-11 15:36:00,37.3,36.3,29.67,South,173,0.0,0.0,96,0.11,,,0.20,Wunderground v.1.12,2013-02-11 20:36:00,
2013-02-11 15:41:00,36.3,35.3,29.67,South,173,0.0,0.0,96,0.08,,,0.21,Wunderground v.1.12,2013-02-11 20:41:00,
2013-02-11 15:47:00,35.8,34.8,29.68,West,281,1.0,1.0,96,0.08,,,0.21,Wunderground v.1.12,2013-02-11 20:47:00,
2013-02-11 15:52:00,35.3,34.3,29.68,WNW,284,2.0,2.0,96,0.05,,,0.21,Wunderground v.1.12,2013-02-11 20:52:00,
2013-02-11 15:57:00,34.6,33.6,29.68,WNW,284,1.0,1.0,96,0.00,,,0.21,Wunderground v.1.12,2013-02-11 20:57:00,
2013-02-11 16:02:00,34.3,33.3,29.68,WNW,284,1.0,2.0,96,0.00,,,0.22,Wunderground v.1.12,2013-02-11 21:02:00,
2013-02-11 16:06:00,34.4,33.4,29.68,WNW,293,1.0,6.0,96,0.06,,,0.24,Wunderground v.1.12,2013-02-11 21:06:00,
2013-02-11 16:08:00,34.1,33.1,29.68,WNW,284,1.0,1.0,96,0.00,,,0.22,Wunderground v.1.12,2013-02-11 21:08:00,
2013-02-11 16:14:00,34.0,33.0,29.68,WNW,284,0.0,1.0,96,0.05,,,0.23,Wunderground v.1.12,2013-02-11 21:14:00,
2013-02-11 16:19:00,34.0,33.0,29.66,WNW,284,0.0,0.0,96,0.08,,,0.24,Wunderground v.1.12,2013-02-11 21:19:00,
2013-02-11 16:24:00,34.1,33.1,29.66,WNW,284,0.0,2.0,96,0.08,,,0.24,Wunderground v.1.12,2013-02-11 21:24:00,
2013-02-11 16:30:00,34.3,33.3,29.62,WNW,284,1.0,1.0,96,0.05,,,0.24,Wunderground v.1.12,2013-02-11 21:30:00,
2013-02-11 16:35:00,34.4,33.4,29.62,WNW,284,1.0,2.0,96,0.00,,,0.24,Wunderground v.1.12,2013-02-11 21:35:00,
2013-02-11 16:36:00,34.3,33.3,29.62,WNW,293,1.0,4.0,96,0.05,,,0.25,Wunderground v.1.12,2013-02-11 21:36:00,
2013-02-11 16:40:00,34.4,33.4,29.62,WNW,284,1.0,1.0,96,0.00,,,0.24,Wunderground v.1.12,2013-02-11 21:40:00,
2013-02-11 16:45:00,34.4,33.4,29.63,WNW,284,0.0,0.0,96,0.00,,,0.24,Wunderground v.1.12,2013-02-11 21:45:00,
2013-02-11 16:51:00,34.3,33.3,29.63,WNW,284,0.0,0.0,96,0.00,,,0.24,Wunderground v.1.12,2013-02-11 21:51:00,
2013-02-11 16:56:00,34.3,33.3,29.63,WNW,284,0.0,0.0,96,0.00,,,0.25,Wunderground v.1.12,2013-02-11 21:56:00,
2013-02-11 17:02:00,34.3,33.3,29.62,WNW,284,0.0,0.0,96,0.00,,,0.25,Wunderground v.1.12,2013-02-11 22:02:00,
2013-02-11 17:07:00,34.1,33.1,29.62,WNW,284,0.0,0.0,96,0.00,,,0.25,Wunderground v.1.12,2013-02-11 22:07:00,
2013-02-11 17:13:00,34.1,33.3,29.62,WNW,284,0.0,0.0,97,0.00,,,0.25,Wunderground v.1.12,2013-02-11 22:13:00,
2013-02-11 17:18:00,34.1,33.3,29.60,WNW,284,0.0,0.0,97,0.00,,,0.25,Wunderground v.1.12,2013-02-11 22:18:00,
2013-02-11 17:24:00,34.0,33.0,29.60,WNW,284,0.0,1.0,96,0.00,,,0.25,Wunderground v.1.12,2013-02-11 22:24:00,
2013-02-11 17:30:00,33.8,32.8,29.60,WNW,284,0.0,0.0,96,0.00,,,0.25,Wunderground v.1.12,2013-02-11 22:30:00,
2013-02-11 17:36:00,33.7,32.7,29.60,WNW,284,0.0,0.0,96,0.00,,,0.25,Wunderground v.1.12,2013-02-11 22:36:00,
2013-02-11 17:37:00,33.8,32.8,29.60,WNW,293,0.0,1.0,96,0.01,,,0.25,Wunderground v.1.12,2013-02-11 22:37:00,
2013-02-11 17:41:00,33.7,32.7,29.60,WNW,284,0.0,0.0,96,0.00,,,0.25,Wunderground v.1.12,2013-02-11 22:41:00,
2013-02-11 17:46:00,33.7,32.9,29.60,WNW,284,0.0,0.0,97,0.00,,,0.25,Wunderground v.1.12,2013-02-11 22:46:00,
2013-02-11 17:52:00,33.8,33.0,29.60,WNW,284,0.0,0.0,97,0.00,,,0.25,Wunderground v.1.12,2013-02-11 22:52:00,
2013-02-11 17:59:00,33.7,32.9,29.60,WNW,284,0.0,0.0,97,0.00,,,0.25,Wunderground v.1.12,2013-02-11 22:59:00,
2013-02-11 18:07:00,33.7,32.9,29.60,WNW,284,0.0,0.0,97,0.00,,,0.25,Wunderground v.1.12,2013-02-11 23:07:00,
2013-02-11 18:08:00,33.7,32.9,29.60,WNW,293,0.0,1.0,97,0.00,,,0.26,Wunderground v.1.12,2013-02-11 23:08:00,
2013-02-11 18:13:00,33.7,32.9,29.60,WNW,284,0.0,0.0,97,0.00,,,0.25,Wunderground v.1.12,2013-02-11 23:13:00,
2013-02-11 18:18:00,33.5,32.7,29.59,WNW,284,0.0,0.0,97,0.00,,,0.25,Wunderground v.1.12,2013-02-11 23:18:00,
2013-02-11 18:24:00,33.7,32.9,29.59,WNW,284,0.0,0.0,97,0.00,,,0.26,Wunderground v.1.12,2013-02-11 23:24:00,
2013-02-11 18:29:00,33.5,32.7,29.60,WNW,284,1.0,4.0,97,0.00,,,0.26,Wunderground v.1.12,2013-02-11 23:29:00,
2013-02-11 18:35:00,33.7,32.9,29.60,WNW,284,2.0,2.0,97,0.00,,,0.26,Wunderground v.1.12,2013-02-11 23:35:00,
2013-02-11 18:37:00,33.5,32.7,29.60,WNW,293,0.0,4.0,97,0.01,,,0.26,Wunderground v.1.12,2013-02-11 23:37:00,
2013-02-11 18:40:00,33.7,32.9,29.60,WNW,284,1.0,2.0,97,0.00,,,0.26,Wunderground v.1.12,2013-02-11 23:40:00,
2013-02-11 18:46:00,33.5,32.7,29.59,WNW,284,0.0,1.0,97,0.00,,,0.26,Wunderground v.1.12,2013-02-11 23:46:00,
2013-02-11 18:52:00,33.5,32.7,29.59,WNW,284,0.0,0.0,97,0.00,,,0.26,Wunderground v.1.12,2013-02-11 23:52:00,
2013-02-11 18:57:00,33.4,32.6,29.59,WNW,284,0.0,0.0,97,0.00,,,0.26,Wunderground v.1.12,2013-02-11 23:57:00,
2013-02-11 19:03:00,33.2,32.4,29.60,WNW,284,0.0,1.0,97,0.00,,,0.26,Wunderground v.1.12,2013-02-12 00:03:00,
2013-02-11 19:06:00,33.4,32.6,29.60,WNW,293,1.0,5.0,97,0.01,,,0.26,Wunderground v.1.12,2013-02-12 00:06:00,
2013-02-11 19:09:00,33.2,32.4,29.60,WNW,284,0.0,1.0,97,0.00,,,0.26,Wunderground v.1.12,2013-02-12 00:09:00,
2013-02-11 19:14:00,33.2,32.4,29.59,WNW,284,1.0,1.0,97,0.00,,,0.26,Wunderground v.1.12,2013-02-12 00:14:00,
2013-02-11 19:20:00,33.2,32.4,29.59,WNW,284,0.0,0.0,97,0.00,,,0.26,Wunderground v.1.12,2013-02-12 00:20:00,
2013-02-11 19:25:00,33.2,32.4,29.59,WNW,284,0.0,0.0,97,0.00,,,0.26,Wunderground v.1.12,2013-02-12 00:25:00,
2013-02-11 19:30:00,33.2,32.4,29.57,WNW,284,0.0,0.0,97,0.00,,,0.26,Wunderground v.1.12,2013-02-12 00:30:00,
2013-02-11 19:35:00,33.2,32.4,29.57,WNW,284,0.0,0.0,97,0.00,,,0.26,Wunderground v.1.12,2013-02-12 00:35:00,
2013-02-11 19:37:00,33.2,32.4,29.57,WNW,293,0.0,4.0,97,0.00,,,0.26,Wunderground v.1.12,2013-02-12 00:37:00,
2013-02-11 19:40:00,33.2,32.4,29.57,WNW,284,0.0,0.0,97,0.00,,,0.26,Wunderground v.1.12,2013-02-12 00:40:00,
2013-02-11 19:45:00,33.2,32.4,29.57,WNW,284,0.0,0.0,97,0.00,,,0.26,Wunderground v.1.12,2013-02-12 00:45:00,
2013-02-11 19:51:00,33.1,32.3,29.57,WNW,284,0.0,1.0,97,0.00,,,0.26,Wunderground v.1.12,2013-02-12 00:51:00,
2013-02-11 19:56:00,33.1,32.3,29.57,WNW,284,0.0,0.0,97,0.00,,,0.26,Wunderground v.1.12,2013-02-12 00:56:00,
2013-02-11 20:02:00,33.2,32.4,29.57,WNW,284,0.0,0.0,97,0.00,,,0.26,Wunderground v.1.12,2013-02-12 01:02:00,
2013-02-11 20:07:00,33.2,32.4,29.57,WNW,284,0.0,0.0,97,0.00,,,0.26,Wunderground v.1.12,2013-02-12 01:07:00,
2013-02-11 20:13:00,33.1,32.3,29.57,WNW,284,0.0,0.0,97,0.00,,,0.26,Wunderground v.1.12,2013-02-12 01:13:00,
2013-02-11 20:19:00,33.1,32.3,29.56,WNW,284,0.0,0.0,97,0.00,,,0.26,Wunderground v.1.12,2013-02-12 01:19:00,
2013-02-11 20:25:00,33.1,32.3,29.56,WNW,284,0.0,0.0,97,0.00,,,0.26,Wunderground v.1.12,2013-02-12 01:25:00,
2013-02-11 20:31:00,33.1,32.3,29.54,WNW,284,0.0,0.0,97,0.00,,,0.26,Wunderground v.1.12,2013-02-12 01:31:00,
2013-02-11 20:36:00,33.1,32.3,29.54,WNW,284,0.0,0.0,97,0.00,,,0.26,Wunderground v.1.12,2013-02-12 01:36:00,
2013-02-11 20:37:00,33.1,32.3,29.54,WNW,293,0.0,1.0,97,0.00,,,0.26,Wunderground v.1.12,2013-02-12 01:37:00,
2013-02-11 20:41:00,33.1,32.3,29.54,WNW,284,0.0,0.0,97,0.00,,,0.26,Wunderground v.1.12,2013-02-12 01:41:00,
2013-02-11 20:46:00,33.1,32.3,29.54,WNW,284,0.0,0.0,97,0.00,,,0.26,Wunderground v.1.12,2013-02-12 01:46:00,
2013-02-11 20:51:00,33.1,32.3,29.54,WNW,284,0.0,0.0,97,0.00,,,0.26,Wunderground v.1.12,2013-02-12 01:51:00,
2013-02-11 20:57:00,33.1,32.3,29.54,WNW,284,0.0,0.0,97,0.00,,,0.26,Wunderground v.1.12,2013-02-12 01:57:00,
2013-02-11 21:02:00,33.1,32.3,29.53,WNW,284,0.0,0.0,97,0.00,,,0.26,Wunderground v.1.12,2013-02-12 02:02:00,
2013-02-11 21:06:00,33.1,32.3,29.53,WNW,293,0.0,1.0,97,0.00,,,0.27,Wunderground v.1.12,2013-02-12 02:06:00,
2013-02-11 21:08:00,33.1,32.3,29.53,WNW,284,0.0,0.0,97,0.00,,,0.26,Wunderground v.1.12,2013-02-12 02:08:00,
2013-02-11 21:13:00,33.2,32.4,29.53,WNW,284,0.0,0.0,97,0.00,,,0.26,Wunderground v.1.12,2013-02-12 02:13:00,
2013-02-11 21:19:00,33.2,32.4,29.52,WNW,284,0.0,1.0,97,0.00,,,0.26,Wunderground v.1.12,2013-02-12 02:19:00,
2013-02-11 21:24:00,33.1,32.3,29.52,WNW,284,0.0,0.0,97,0.00,,,0.27,Wunderground v.1.12,2013-02-12 02:24:00,
2013-02-11 21:30:00,33.1,32.3,29.52,WNW,284,0.0,0.0,97,0.00,,,0.27,Wunderground v.1.12,2013-02-12 02:30:00,
2013-02-11 21:35:00,33.1,32.3,29.52,WNW,284,0.0,0.0,97,0.00,,,0.27,Wunderground v.1.12,2013-02-12 02:35:00,
2013-02-11 21:38:00,33.1,32.3,29.52,WNW,293,0.0,2.0,97,0.01,,,0.27,Wunderground v.1.12,2013-02-12 02:38:00,
2013-02-11 21:41:00,33.2,32.4,29.52,WNW,284,0.0,0.0,97,0.00,,,0.27,Wunderground v.1.12,2013-02-12 02:41:00,
2013-02-11 21:47:00,33.2,32.4,29.52,WNW,284,0.0,2.0,97,0.00,,,0.27,Wunderground v.1.12,2013-02-12 02:47:00,
2013-02-11 21:52:00,33.2,32.4,29.52,WNW,284,0.0,1.0,97,0.00,,,0.27,Wunderground v.1.12,2013-02-12 02:52:00,
2013-02-11 21:58:00,33.2,32.4,29.52,WNW,284,0.0,2.0,97,0.00,,,0.27,Wunderground v.1.12,2013-02-12 02:58:00,
2013-02-11 22:04:00,33.4,32.6,29.53,WNW,284,1.0,3.0,97,0.00,,,0.27,Wunderground v.1.12,2013-02-12 03:04:00,
2013-02-11 22:06:00,33.2,32.4,29.53,WNW,293,0.0,2.0,97,0.01,,,0.27,Wunderground v.1.12,2013-02-12 03:06:00,
2013-02-11 22:10:00,33.4,32.6,29.53,WNW,284,2.0,2.0,97,0.00,,,0.27,Wunderground v.1.12,2013-02-12 03:10:00,
2013-02-11 22:16:00,33.4,32.9,29.52,WNW,284,1.0,2.0,98,0.00,,,0.27,Wunderground v.1.12,2013-02-12 03:16:00,
2013-02-11 22:21:00,33.4,32.9,29.52,WNW,284,0.0,0.0,98,0.00,,,0.27,Wunderground v.1.12,2013-02-12 03:21:00,
2013-02-11 22:27:00,33.4,32.6,29.52,WNW,284,0.0,0.0,97,0.00,,,0.27,Wunderground v.1.12,2013-02-12 03:27:00,
2013-02-11 22:32:00,33.4,32.6,29.51,WNW,284,0.0,0.0,97,0.00,,,0.27,Wunderground v.1.12,2013-02-12 03:32:00,
2013-02-11 22:37:00,33.4,32.6,29.51,WNW,284,0.0,0.0,97,0.00,,,0.27,Wunderground v.1.12,2013-02-12 03:37:00,
2013-02-11 22:42:00,33.4,32.6,29.51,WNW,284,0.0,0.0,97,0.00,,,0.27,Wunderground v.1.12,2013-02-12 03:42:00,
2013-02-11 22:48:00,33.4,32.9,29.51,WNW,284,0.0,0.0,98,0.00,,,0.27,Wunderground v.1.12,2013-02-12 03:48:00,
2013-02-11 22:53:00,33.4,32.6,29.51,WNW,284,0.0,0.0,97,0.00,,,0.27,Wunderground v.1.12,2013-02-12 03:53:00,
2013-02-11 22:58:00,33.4,32.6,29.51,WNW,284,0.0,0.0,97,0.00,,,0.27,Wunderground v.1.12,2013-02-12 03:58:00,
2013-02-11 23:03:00,33.2,32.4,29.50,WNW,284,0.0,1.0,97,0.00,,,0.27,Wunderground v.1.12,2013-02-12 04:03:00,
2013-02-11 23:06:00,33.4,32.6,29.50,WNW,293,0.0,2.0,97,0.00,,,0.27,Wunderground v.1.12,2013-02-12 04:06:00,
2013-02-11 23:08:00,33.2,32.4,29.50,WNW,284,0.0,0.0,97,0.00,,,0.27,Wunderground v.1.12,2013-02-12 04:08:00,
2013-02-11 23:14:00,33.2,32.7,29.50,WNW,284,0.0,0.0,98,0.00,,,0.27,Wunderground v.1.12,2013-02-12 04:14:00,
2013-02-11 23:19:00,33.2,32.7,29.49,WNW,284,0.0,2.0,98,0.00,,,0.27,Wunderground v.1.12,2013-02-12 04:19:00,
2013-02-11 23:24:00,33.2,32.7,29.49,WNW,284,1.0,2.0,98,0.00,,,0.27,Wunderground v.1.12,2013-02-12 04:24:00,
2013-02-11 23:30:00,33.4,32.9,29.51,WNW,284,1.0,1.0,98,0.00,,,0.27,Wunderground v.1.12,2013-02-12 04:30:00,
2013-02-11 23:36:00,33.5,33.0,29.51,WNW,284,1.0,2.0,98,0.00,,,0.27,Wunderground v.1.12,2013-02-12 04:36:00,
2013-02-11 23:38:00,33.4,32.9,29.51,WNW,293,0.0,3.0,98,0.00,,,0.27,Wunderground v.1.12,2013-02-12 04:38:00,
2013-02-11 23:42:00,33.5,33.0,29.51,WNW,284,1.0,2.0,98,0.00,,,0.27,Wunderground v.1.12,2013-02-12 04:42:00,
2013-02-11 23:48:00,33.7,33.2,29.51,WNW,284,1.0,2.0,98,0.00,,,0.27,Wunderground v.1.12,2013-02-12 04:48:00,
2013-02-11 23:54:00,33.8,33.3,29.51,West,279,3.0,5.0,98,0.00,,,0.27,Wunderground v.1.12,2013-02-12 04:54:00,
2013-02-11 23:59:00,33.8,33.3,29.51,WSW,256,4.0,7.0,98,0.00,,,0.27,Wunderground v.1.12,2013-02-12 04:59:00,